Terminal Aerodrome Forecast
Issued by NWS

Home | Current Version | Previous Version | Text Only | Print | Product List | Glossary On
Versions: 1 2 3 4 5 6 7 8 9 10 11 12 13 14 15 16
000
FTUS44 KLZK 051700
TAFHRO
TAF
KHRO 051723Z 0518/0618 16012G22KT P6SM VCTS SCT060CB SCT250
     FM060100 15008KT P6SM FEW050 SCT250
     FM061200 17010G16KT P6SM VCTS BKN050CB=

USA.gov is the U.S. government's official web portal to all federal, state and local government web resources and services.